Flight Track Log - Related Links

Times and Time Zones

All times are in EDT time to prevent confusion due to time zone crossing. See the CTL62 flight status page for this flight to view local times or setup timezone preferences in your user account.

Time Position Orientation Groundspeed Altitude Reporting Facility
EDT Latitude Longitude Course Direction KTS MPH feet Rate Location/Type
Tue 01:51:13 AM 42.1497 -87.7658 90° East 153 176 2,700  Level Chicago Center
Tue 01:52:14 AM 42.1333 -87.7289 121° Southeast 135 155 3,600 843 Climbing Chicago Center
Tue 01:53:14 AM 42.1167 -87.6911 121° Southeast 124 143 4,400 800 Climbing Chicago Center
Tue 01:54:14 AM 42.0992 -87.6492 119° Southeast 123 142 5,200 750 Climbing Chicago Center
Tue 01:55:00 AM 41.9693 -87.5440 109° East  Level FlightAware Approximate
Tue 01:55:14 AM 42.0786 -87.6056 122° Southeast 130 150 5,900  Level Chicago Center
Tue 01:56:14 AM 42.0578 -87.5589 121° Southeast 142 163 6,500 650 Climbing Chicago Center
Tue 01:57:14 AM 42.0381 -87.5147 121° Southeast 141 162 7,200 622 Climbing Chicago Center
Tue 01:59:00 AM 41.9951 -87.4099 119° Southeast  Level Estimated
Tue 02:00:15 AM 41.9786 -87.3797 119° Southeast 133 153 9,000  Level Chicago Center
Tue 02:01:15 AM 41.9600 -87.3289 116° Southeast 148 170 9,000 50 Level Chicago Center
Tue 02:02:15 AM 41.9347 -87.2703 120° Southeast 175 201 9,100  Climbing Chicago Center
Tue 02:03:15 AM 41.9086 -87.2106 120° Southeast 183 211 9,000 -50 Descending Chicago Center
Tue 02:04:15 AM 41.8825 -87.1481 119° Southeast 189 217 9,000 25 Level Chicago Center
Tue 02:06:00 AM 41.8080 -87.0850 148° Southeast  Level FlightAware Approximate
Tue 02:07:15 AM 41.8003 -86.9514 148° Southeast 190 219 9,100  Level Chicago Center
Tue 02:08:15 AM 41.7739 -86.8911 120° Southeast 188 216 9,100  Level Chicago Center
Tue 02:09:15 AM 41.7458 -86.8336 123° Southeast 186 214 9,100  Level Chicago Center
Tue 02:10:16 AM 41.7264 -86.7692 112° Southeast 186 214 9,100  Level Chicago Center
Tue 02:11:16 AM 41.6997 -86.7092 121° Southeast 188 216 9,100  Level Chicago Center
Tue 02:12:16 AM 41.6769 -86.6547 119° Southeast 187 215 9,100  Level Chicago Center
Tue 02:13:16 AM 41.6567 -86.5900 113° Southeast 187 215 9,100  Level Chicago Center
Tue 02:14:16 AM 41.6336 -86.5294 117° Southeast 184 212 9,100 -100 Level Chicago Center
Tue 02:15:16 AM 41.6092 -86.4692 118° Southeast 184 212 8,900 -50 Descending Chicago Center
Tue 02:16:16 AM 41.5819 -86.4114 122° Southeast 185 213 9,000 100 Climbing Chicago Center
Tue 02:17:16 AM 41.5542 -86.3547 123° Southeast 184 212 9,100 -50 Climbing Chicago Center
Tue 02:18:16 AM 41.5344 -86.2917 113° Southeast 187 215 8,900 -100 Descending Chicago Center
Tue 02:19:16 AM 41.5175 -86.2269 109° East 185 213 8,900 -50 Level Chicago Center
Tue 02:20:17 AM 41.5147 -86.1589 93° East 187 215 8,800  Descending Chicago Center
Tue 02:21:17 AM 41.5353 -86.0933 67° East 193 222 8,900 150 Climbing Chicago Center
Tue 02:22:17 AM 41.5156 -86.0375 115° Southeast 166 191 9,100 100 Climbing Chicago Center
Tue 02:23:17 AM 41.4883 -85.9819 123° Southeast 178 205 9,100  Level Chicago Center
Tue 02:24:17 AM 41.4619 -85.9244 121° Southeast 182 209 9,100 -50 Level Chicago Center
Tue 02:25:17 AM 41.4350 -85.8672 122° Southeast 183 211 9,000  Descending Chicago Center
Tue 02:26:17 AM 41.4064 -85.8139 126° Southeast 179 206 9,100 50 Climbing Chicago Center
Tue 02:27:17 AM 41.3778 -85.7631 127° Southeast 173 199 9,100 -50 Level Chicago Center
Tue 02:28:17 AM 41.3489 -85.7081 125° Southeast 180 207 9,000 -50 Descending Chicago Center
Tue 02:29:18 AM 41.3211 -85.6533 124° Southeast 181 208 9,000  Level Chicago Center
Tue 02:30:18 AM 41.2956 -85.5958 121° Southeast 182 209 9,000 38 Level Chicago Center
Tue 02:31:55 AM 41.2489 -85.4994 123° Southeast 180 207 9,100 50 Climbing Indianapolis Center
Tue 02:32:18 AM 41.2419 -85.4844 122° Southeast 178 205 9,100 -72 Level Chicago Center
Tue 02:33:18 AM 41.2117 -85.4172 121° Southeast 178 205 9,000  Descending Chicago Center
Tue 02:34:18 AM 41.1886 -85.3594 118° Southeast 177 204 9,100 50 Climbing Chicago Center
Tue 02:35:18 AM 41.1661 -85.3025 118° Southeast 177 204 9,100  Level Chicago Center
Tue 02:36:18 AM 41.1439 -85.2453 117° Southeast 175 201 9,100  Level Chicago Center
Tue 02:37:19 AM 41.1194 -85.1869 119° Southeast 180 207 9,100 -50 Level Chicago Center
Tue 02:38:19 AM 41.0978 -85.1289 116° Southeast 177 204 9,000 -50 Descending Chicago Center
Tue 02:39:19 AM 41.0725 -85.0747 122° Southeast 175 201 9,000  Level Chicago Center
Tue 02:40:19 AM 41.0506 -85.0164 116° Southeast 175 201 9,000  Level Chicago Center
Tue 02:41:19 AM 41.0311 -84.9561 113° Southeast 178 205 9,000 -50 Level Chicago Center
Tue 02:42:19 AM 41.0097 -84.9008 117° Southeast 174 200 8,900  Descending Chicago Center
Tue 02:43:19 AM 40.9814 -84.8481 125° Southeast 176 203 9,000 100 Climbing Chicago Center
Tue 02:44:19 AM 40.9533 -84.8000 128° Southeast 171 197 9,100 50 Climbing Chicago Center
Tue 02:45:20 AM 40.9294 -84.7472 121° Southeast 167 192 9,100  Level Chicago Center
Tue 02:46:20 AM 40.9017 -84.6964 126° Southeast 172 198 9,100  Level Chicago Center
Tue 02:47:20 AM 40.8797 -84.6394 117° Southeast 174 200 9,100 50 Level Chicago Center
Tue 02:48:20 AM 40.8547 -84.5853 121° Southeast 174 200 9,200 50 Climbing Chicago Center
Tue 02:49:20 AM 40.8394 -84.5261 109° East 171 197 9,200 -50 Level Chicago Center
Tue 02:50:20 AM 40.8133 -84.4694 121° Southeast 181 208 9,100 -100 Descending Chicago Center
Tue 02:51:20 AM 40.7869 -84.4164 123° Southeast 177 204 9,000 -50 Descending Chicago Center
Tue 02:52:20 AM 40.7642 -84.3569 117° Southeast 179 206 9,000  Level Chicago Center
Tue 02:52:58 AM 40.7442 -84.3239 129° Southeast 179 206 9,000 61 Level Indianapolis Center
Tue 02:53:59 AM 40.7175 -84.2700 123° Southeast 173 199 9,100 50 Climbing Indianapolis Center
Tue 02:54:59 AM 40.6942 -84.2139 119° Southeast 173 199 9,100  Level Indianapolis Center
Tue 02:55:59 AM 40.6761 -84.1656 116° Southeast 175 201 9,100  Level Indianapolis Center
Tue 02:56:59 AM 40.6494 -84.1128 124° Southeast 173 199 9,100  Level Indianapolis Center
Tue 02:57:59 AM 40.6189 -84.0628 129° Southeast 172 198 9,100  Level Indianapolis Center
Tue 02:58:59 AM 40.5928 -84.0089 123° Southeast 174 200 9,100  Level Indianapolis Center
Tue 03:00:00 AM 40.5650 -83.9558 125° Southeast 174 200 9,100 -149 Level Indianapolis Center
Tue 03:01:00 AM 40.5336 -83.9033 128° Southeast 181 208 8,800 -300 Descending Indianapolis Center
Tue 03:02:00 AM 40.4922 -83.8583 140° Southeast 189 217 8,500 -450 Descending Indianapolis Center
Tue 03:03:00 AM 40.4517 -83.8092 137° Southeast 195 224 7,900 -550 Descending Indianapolis Center
Tue 03:04:00 AM 40.4144 -83.7608 135° Southeast 189 217 7,400 -640 Descending Indianapolis Center
Tue 03:04:15 AM 40.4019 -83.7447 136° Southeast 185 213 7,100 -900 Descending Indianapolis Center
Tue 03:05:00 AM 40.3786 -83.7100 131° Southeast 187 215 6,500 -885 Descending Indianapolis Center
Tue 03:05:16 AM 40.3658 -83.6964 141° Southeast 193 222 6,200 -500 Descending Indianapolis Center
Tue 03:06:00 AM 40.3417 -83.6608 132° Southeast 188 216 6,000 -500 Descending Indianapolis Center
Tue 03:06:16 AM 40.3317 -83.6481 136° Southeast 181 208 5,700 -689 Descending Indianapolis Center
Tue 03:07:01 AM 40.3097 -83.6117 128° Southeast 181 208 5,300 -590 Descending Indianapolis Center
Tue 03:07:17 AM 40.2994 -83.6003 140° Southeast 173 199 5,100 -700 Descending Indianapolis Center
Tue 03:08:01 AM 40.2761 -83.5667 132° Southeast 176 203 4,600 -800 Descending Indianapolis Center
Tue 03:08:17 AM 40.2650 -83.5550 141° Southeast 171 197 4,300 -600 Descending Indianapolis Center
Tue 03:09:01 AM 40.2383 -83.5253 140° Southeast 174 200 4,000 -590 Descending Indianapolis Center
Tue 03:09:18 AM 40.2264 -83.5119 140° Southeast 171 197 3,700 -800 Descending Indianapolis Center
Tue 03:10:01 AM 40.2044 -83.4803 132° Southeast 173 199 3,200 -590 Descending Indianapolis Center
Tue 03:10:19 AM 40.1939 -83.4672 137° Southeast 174 200 3,100 -100 Descending Indianapolis Center
Tue 03:11:01 AM 40.1719 -83.4356 132° Southeast 171 197 3,100  Level Indianapolis Center
Tue 03:11:19 AM 40.1614 -83.4250 143° Southeast 160 184 3,100 -100 Level Indianapolis Center
Tue 03:12:01 AM 40.1439 -83.3925 125° Southeast 162 186 3,000 -98 Descending Indianapolis Center
Tue 03:12:20 AM 40.1353 -83.3808 134° Southeast 151 174 3,000 200 Level Indianapolis Center
Tue 03:13:01 AM 40.1208 -83.3561 127° Southeast 157 181 3,200 200 Climbing Indianapolis Center
Tue 03:13:20 AM 40.1069 -83.3392 137° Southeast 152 175 3,200  Level Indianapolis Center
Tue 03:14:01 AM 40.0956 -83.3119 119° Southeast 153 176 3,200  Level Indianapolis Center
Tue 03:14:21 AM 40.0853 -83.2903 122° Southeast 154 177 3,200 -98 Level Indianapolis Center
Tue 03:15:02 AM 40.0783 -83.2586 106° East 156 180 3,100 -98 Descending Indianapolis Center
Tue 03:15:22 AM 40.0722 -83.2369 110° East 157 181 3,100 -200 Level Indianapolis Center
Tue 03:16:02 AM 40.0711 -83.2056 93° East 152 175 2,900 -500 Descending Indianapolis Center
Tue 03:16:22 AM 40.0717 -83.1850 88° East 127 146 2,600 -700 Descending Indianapolis Center
Tue 03:17:02 AM 40.0747 -83.1586 81° East 138 159 2,200 -689 Descending Indianapolis Center
Tue 03:17:23 AM 40.0747 -83.1419 90° East 120 138 1,900 -600 Descending Indianapolis Center
Tue 03:18:02 AM 40.0756 -83.1186 87° East 122 140 1,600 -600 Descending Indianapolis Center
Tue 03:18:23 AM 40.0753 -83.1036 91° East 100 115 1,300 -500 Descending Indianapolis Center
Tue 03:19:02 AM 40.0775 -83.0772 84° East 110 127 1,100 124 Descending Indianapolis Center
Tue 03:20:00 AM 40.0789 -83.0497 86° East 99 114 1,500 578 Climbing Indianapolis Center
Tue 03:20:25 AM 40.0800 -83.0333 85° East 112 129 1,900 857 Climbing Indianapolis Center
Tue 03:21:03 AM 40.0950 -83.0269 18° North 143 165 2,400 1,000 Climbing Indianapolis Center
Tue 03:21:25 AM 40.1044 -83.0444 305° West 140 161 2,900 700 Climbing Indianapolis Center
Tue 03:22:03 AM 40.1147 -83.0667 301° West 134 154 3,100 197 Climbing Indianapolis Center
Tue 03:22:26 AM 40.1200 -83.0900 286° West 146 168 3,100 100 Level Indianapolis Center
Tue 03:23:03 AM 40.1267 -83.1189 287° West 141 162 3,200 -100 Climbing Indianapolis Center
Tue 03:23:26 AM 40.1269 -83.1425 271° West 159 183 3,000 -200 Descending Indianapolis Center
Tue 03:24:03 AM 40.1061 -83.1539 203° Southwest 149 171 3,000  Level Indianapolis Center
Tue 03:24:27 AM 40.0867 -83.1486 168° South 148 170 3,000  Level Indianapolis Center
Tue 03:25:03 AM 40.0650 -83.1406 164° South 149 171 3,000 98 Level Indianapolis Center
Tue 03:25:28 AM 40.0475 -83.1386 175° South 146 168 3,100  Climbing Indianapolis Center
Tue 03:26:03 AM 40.0258 -83.1319 167° South 143 165 3,000 -100 Descending Indianapolis Center
Tue 03:26:28 AM 40.0139 -83.1103 126° Southeast 162 186 3,000  Level Indianapolis Center
Tue 03:27:03 AM 40.0042 -83.0803 113° Southeast 156 180 3,000  Level Indianapolis Center
Tue 03:27:29 AM 40.0031 -83.0544 93° East 164 189 3,000 -300 Level Indianapolis Center
Tue 03:28:03 AM 40.0014 -83.0206 94° East 160 184 2,700 -600 Descending Indianapolis Center
Tue 03:28:29 AM 40.0008 -82.9969 92° East 170 196 2,400 -492 Descending Indianapolis Center
Tue 03:29:04 AM 39.9983 -82.9611 95° East 163 188 2,200 -590 Descending Indianapolis Center
Tue 03:29:30 AM 39.9978 -82.9478 93° East 119 137 1,800 -1,000 Descending Indianapolis Center
Tue 03:30:04 AM 39.9961 -82.9247 95° East 119 137 1,200 -511 Descending Indianapolis Center
Tue 03:31:04 AM 39.9953 -82.8931 92° East 114 131 1,000 -200 Descending Indianapolis Center

Login

Don't have an account? Register now (free) for customized features, flight alerts, and more!